Time;durP1;ratioP1;P1;durP2;ratioP2;P2;SDS_P1;SDS_P2;PMS_P1;PMS_P2;Temp;Humidity;BMP_temperature;BMP_pressure;BME280_temperature;BME280_humidity;BME280_pressure;Samples;Min_cycle;Max_cycle;Signal;HPM_P1;HPM_P2
2024/02/17 00:00:20;;;;;;;39.95;22.35;;;;;;;6.14;77.51;100554.56;1730566;82;25541;-52
2024/02/17 00:02:49;;;;;;;;;;;;;;;6.14;77.56;100555.91;1733234;82;25563;-54
2024/02/17 00:05:15;;;;;;;38.10;22.05;;;;;;;6.11;77.57;100546.25;1730682;82;25565;-51
2024/02/17 00:07:42;;;;;;;39.98;22.77;;;;;;;6.09;77.90;100545.18;1730595;82;27387;-53
2024/02/17 00:10:09;;;;;;;39.65;22.40;;;;;;;6.08;77.75;100544.93;1730528;82;25664;-52
2024/02/17 00:12:37;;;;;;;40.70;22.02;;;;;;;6.09;77.96;100541.70;1730618;82;25420;-52
2024/02/17 00:15:07;;;;;;;41.23;22.32;;;;;;;6.07;78.02;100543.31;1730603;82;25634;-51
2024/02/17 00:17:33;;;;;;;38.13;22.42;;;;;;;6.07;77.81;100544.66;1730814;82;25563;-51
2024/02/17 00:20:00;;;;;;;33.23;20.05;;;;;;;6.06;77.97;100543.58;1730624;82;27489;-52
2024/02/17 00:22:26;;;;;;;39.80;22.67;;;;;;;6.06;77.79;100543.58;1730618;82;25555;-50
2024/02/17 00:24:52;;;;;;;43.00;23.18;;;;;;;6.04;77.74;100543.85;1730464;81;25467;-54
2024/02/17 00:27:19;;;;;;;36.88;21.93;;;;;;;6.02;78.06;100532.58;1729438;81;25640;-52
2024/02/17 00:29:46;;;;;;;43.65;24.05;;;;;;;6.00;78.21;100526.69;1730586;82;25543;-50
2024/02/17 00:32:13;;;;;;;36.23;21.55;;;;;;;6.00;78.38;100530.71;1730690;81;27340;-50
2024/02/17 00:34:41;;;;;;;40.08;23.87;;;;;;;6.00;78.43;100529.92;1730465;82;25451;-50
2024/02/17 00:37:08;;;;;;;40.30;23.00;;;;;;;5.99;78.73;100529.09;1730612;82;25411;-51
2024/02/17 00:39:34;;;;;;;46.88;23.73;;;;;;;5.98;78.74;100526.95;1730596;82;25620;-52
2024/02/17 00:42:02;;;;;;;41.73;24.40;;;;;;;5.97;78.97;100531.25;1730456;82;25527;-50
2024/02/17 00:44:30;;;;;;;40.78;23.10;;;;;;;5.96;78.86;100520.27;1730646;82;27345;-50
2024/02/17 00:46:57;;;;;;;35.95;22.48;;;;;;;5.96;79.31;100520.27;1730671;82;25625;-53
2024/02/17 00:49:23;;;;;;;45.92;23.90;;;;;;;5.95;79.04;100522.09;1730564;82;25432;-50
2024/02/17 00:51:50;;;;;;;41.92;23.77;;;;;;;5.94;78.96;100520.50;1730597;82;25643;-52
2024/02/17 00:54:18;;;;;;;40.73;22.73;;;;;;;5.93;79.06;100517.53;1730588;82;25368;-53
2024/02/17 00:56:45;;;;;;;42.20;23.17;;;;;;;5.92;79.21;100523.17;1730810;82;28154;-50
2024/02/17 00:59:12;;;;;;;38.38;23.27;;;;;;;5.92;79.15;100523.97;1730534;82;25436;-53
2024/02/17 01:01:38;;;;;;;42.13;24.27;;;;;;;5.91;79.29;100527.75;1730565;82;25611;-53
2024/02/17 01:04:06;;;;;;;40.10;23.75;;;;;;;5.93;79.70;100527.48;1730568;82;26343;-50
2024/02/17 01:06:32;;;;;;;42.45;22.60;;;;;;;5.93;79.73;100522.91;1730637;82;25468;-53
2024/02/17 01:08:58;;;;;;;41.42;23.45;;;;;;;5.93;79.56;100525.59;1730545;81;27366;-51
2024/02/17 01:11:26;;;;;;;40.75;23.62;;;;;;;5.95;79.65;100525.33;1730530;82;26010;-52
2024/02/17 01:13:53;;;;;;;43.70;23.40;;;;;;;5.94;79.74;100528.55;1730603;82;25637;-50
2024/02/17 01:16:21;;;;;;;39.38;23.30;;;;;;;5.96;79.59;100516.23;1730676;82;25497;-52
2024/02/17 01:18:47;;;;;;;43.23;25.02;;;;;;;5.97;79.87;100520.52;1730622;82;25616;-51
2024/02/17 01:21:16;;;;;;;38.48;22.55;;;;;;;5.96;79.75;100511.66;1730611;82;28167;-52
2024/02/17 01:23:43;;;;;;;45.65;24.05;;;;;;;5.96;79.65;100520.27;1730511;82;25628;-51
2024/02/17 01:26:11;;;;;;;40.88;23.38;;;;;;;5.94;79.97;100512.45;1730595;82;25197;-54
2024/02/17 01:28:37;;;;;;;36.80;22.90;;;;;;;5.96;79.78;100513.55;1730615;82;25623;-55
2024/02/17 01:31:05;;;;;;;40.30;24.37;;;;;;;5.96;80.14;100511.66;1730683;82;25393;-54
2024/02/17 01:33:31;;;;;;;40.55;23.73;;;;;;;5.98;79.95;100509.50;1730566;82;27722;-53
2024/02/17 01:35:59;;;;;;;43.38;24.72;;;;;;;5.98;79.95;100513.53;1730502;82;26029;-52
2024/02/17 01:38:25;;;;;;;39.83;23.90;;;;;;;6.00;79.95;100497.70;1730594;81;25456;-51
2024/02/17 01:40:52;;;;;;;42.20;23.40;;;;;;;6.01;80.07;100507.34;1730539;82;26259;-51
2024/02/17 01:43:18;;;;;;;42.75;23.12;;;;;;;6.00;80.12;100503.06;1740821;81;25561;-50
2024/02/17 01:45:48;;;;;;;44.33;24.63;;;;;;;6.00;79.98;100503.86;1743862;81;27442;-50
2024/02/17 01:48:15;;;;;;;41.02;23.85;;;;;;;6.02;80.44;100507.62;1741328;82;25609;-52
2024/02/17 01:50:43;;;;;;;39.75;23.25;;;;;;;6.01;80.06;100499.28;1741300;82;25576;-52
2024/02/17 01:53:10;;;;;;;44.38;24.23;;;;;;;6.01;80.12;100499.28;1741247;82;25623;-51
2024/02/17 01:55:39;;;;;;;41.23;23.65;;;;;;;6.00;80.19;100499.83;1741269;82;25543;-51
2024/02/17 01:58:07;;;;;;;40.48;23.12;;;;;;;6.00;80.39;100492.33;1741450;82;28036;-53
2024/02/17 02:00:35;;;;;;;38.53;22.37;;;;;;;5.99;80.33;100491.50;1741204;82;25593;-50
2024/02/17 02:03:02;;;;;;;45.80;24.18;;;;;;;6.00;80.76;100491.78;1741304;82;25456;-53
2024/02/17 02:05:29;;;;;;;42.40;24.43;;;;;;;6.02;80.57;100490.16;1722543;82;26627;-52
2024/02/17 02:07:57;;;;;;;40.50;23.45;;;;;;;6.02;80.44;100488.27;1722618;82;25652;-55
2024/02/17 02:10:25;;;;;;;40.12;23.38;;;;;;;6.02;80.62;100490.16;1741282;82;27876;-52
2024/02/17 02:12:51;;;;;;;44.50;23.27;;;;;;;6.03;80.69;100485.86;1741212;82;25577;-52
2024/02/17 02:15:20;;;;;;;45.67;23.98;;;;;;;6.04;80.77;100485.31;1741375;82;25523;-52
2024/02/17 02:17:48;;;;;;;37.10;23.05;;;;;;;6.03;80.54;100481.84;1741363;82;25618;-50
2024/02/17 02:20:17;;;;;;;42.98;23.12;;;;;;;6.04;80.55;100478.05;1741295;82;25640;-50
2024/02/17 02:22:45;;;;;;;39.92;23.70;;;;;;;6.04;80.64;100475.92;1741439;82;33023;-53
2024/02/17 02:25:23;;;;;;;39.60;23.95;;;;;;;6.04;81.09;100471.34;1703080;82;34642;-50
2024/02/17 02:27:53;;;;;;;39.95;23.25;;;;;;;6.02;80.84;100474.84;1703035;82;25478;-52
2024/02/17 02:30:22;;;;;;;42.70;23.55;;;;;;;6.03;80.82;100477.81;1674919;85;25629;-53
2024/02/17 02:32:52;;;;;;;40.05;23.57;;;;;;;6.02;81.10;100473.50;1689984;84;25400;-52
2024/02/17 02:35:20;;;;;;;44.65;22.93;;;;;;;6.02;81.13;100472.71;1688991;84;27456;-51
2024/02/17 02:37:46;;;;;;;41.68;23.62;;;;;;;6.01;81.12;100478.63;1689686;84;25608;-52
2024/02/17 02:40:14;;;;;;;40.58;23.62;;;;;;;6.02;81.37;100474.05;1673315;85;25627;-52
2024/02/17 02:42:40;;;;;;;43.92;23.65;;;;;;;6.01;81.21;100473.26;1673183;85;25412;-51
2024/02/17 02:45:10;;;;;;;43.73;24.72;;;;;;;6.03;81.28;100470.27;1673373;85;25597;-52
2024/02/17 02:47:37;;;;;;;40.88;23.50;;;;;;;6.04;81.97;100471.89;1673282;85;28103;-50
2024/02/17 02:50:06;;;;;;;44.40;24.23;;;;;;;6.05;81.51;100471.63;1702955;84;25764;-52
2024/02/17 02:52:33;;;;;;;41.18;24.10;;;;;;;6.09;81.53;100469.19;1703234;83;25459;-51
2024/02/17 02:55:00;;;;;;;38.67;23.15;;;;;;;6.09;81.53;100469.19;1702982;84;25580;-52
2024/02/17 02:57:29;;;;;;;37.80;22.85;;;;;;;6.11;81.78;100473.73;1703115;83;25399;-52
2024/02/17 02:59:55;;;;;;;37.15;22.75;;;;;;;6.12;81.82;100467.30;1674755;85;27352;-51
2024/02/17 03:02:23;;;;;;;40.23;23.87;;;;;;;6.14;81.71;100470.51;1689680;84;25396;-51
2024/02/17 03:04:49;;;;;;;40.48;22.48;;;;;;;6.17;81.81;100463.25;1689773;84;25427;-53
2024/02/17 03:07:15;;;;;;;39.15;23.22;;;;;;;6.21;81.74;100466.19;1689690;84;25621;-51
2024/02/17 03:09:42;;;;;;;38.13;22.17;;;;;;;6.21;81.84;100472.36;1689775;84;25414;-52
2024/02/17 03:12:09;;;;;;;39.98;23.10;;;;;;;6.23;81.85;100463.51;1689792;84;26786;-52
2024/02/17 03:14:39;;;;;;;39.25;22.90;;;;;;;6.26;81.76;100463.48;1689767;84;25887;-51
2024/02/17 03:17:05;;;;;;;33.63;21.60;;;;;;;6.27;81.80;100457.04;1703262;84;25373;-54
2024/02/17 03:19:33;;;;;;;41.50;24.40;;;;;;;6.28;81.87;100471.54;1703001;83;25728;-55
2024/02/17 03:22:01;;;;;;;36.60;22.55;;;;;;;6.29;81.74;100455.67;1703101;84;25563;-52
2024/02/17 03:24:27;;;;;;;40.67;22.90;;;;;;;6.30;81.99;100460.50;1703062;84;27932;-53
2024/02/17 03:26:56;;;;;;;39.98;22.95;;;;;;;6.32;82.04;100465.08;1713256;83;25371;-52
2024/02/17 03:29:24;;;;;;;36.85;23.42;;;;;;;6.33;82.31;100464.80;1713365;83;25579;-52
2024/02/17 03:31:51;;;;;;;40.60;23.35;;;;;;;6.35;82.34;100477.41;1713264;82;25510;-52
2024/02/17 03:34:20;;;;;;;38.85;21.95;;;;;;;6.38;82.15;100469.88;1741346;82;25220;-55
2024/02/17 03:36:49;;;;;;;36.40;21.73;;;;;;;6.38;82.24;100468.53;1741581;82;27747;-55
2024/02/17 03:39:19;;;;;;;;;;;;;;;6.39;82.38;100466.91;1743833;82;25545;-55
2024/02/17 03:41:48;;;;;;;34.35;21.37;;;;;;;6.41;82.23;100469.33;1741492;82;35028;-52
2024/02/17 03:44:17;;;;;;;44.00;22.98;;;;;;;6.42;82.26;100473.09;1723570;82;25674;-54
2024/02/17 03:46:44;;;;;;;;;;;;;;;6.43;82.16;100469.30;1714683;83;25387;-51
2024/02/17 03:49:12;;;;;;;38.85;22.27;;;;;;;6.44;82.56;100466.09;1716074;83;27358;-50
2024/02/17 03:51:38;;;;;;;34.25;21.40;;;;;;;6.44;82.21;100478.19;1709799;83;25822;-51
2024/02/17 03:54:05;;;;;;;39.98;22.35;;;;;;;6.44;82.26;100469.58;1705965;82;25570;-52
2024/02/17 03:56:31;;;;;;;40.10;22.95;;;;;;;6.45;82.57;100475.23;1705930;84;25639;-53
2024/02/17 03:58:58;;;;;;;38.02;22.42;;;;;;;6.46;82.29;100473.33;1713919;83;25604;-51
2024/02/17 04:01:26;;;;;;;38.17;21.97;;;;;;;6.48;82.38;100468.48;1715651;83;29511;-52
2024/02/17 04:03:52;;;;;;;39.27;22.32;;;;;;;6.48;82.54;100475.99;1709350;83;25389;-52
2024/02/17 04:06:18;;;;;;;39.05;21.65;;;;;;;6.49;82.66;100479.50;1711852;83;25561;-52
2024/02/17 04:08:45;;;;;;;39.90;23.32;;;;;;;6.47;82.57;100476.27;1709793;83;25959;-51
2024/02/17 04:11:11;;;;;;;41.90;22.98;;;;;;;6.48;82.81;100479.23;1713966;82;25646;-50
2024/02/17 04:13:39;;;;;;;37.35;22.73;;;;;;;6.48;82.73;100483.26;1714171;83;27328;-51
2024/02/17 04:16:07;;;;;;;37.03;22.25;;;;;;;6.48;82.92;100480.57;1710533;83;25683;-51
2024/02/17 04:18:36;;;;;;;39.03;22.50;;;;;;;6.49;82.88;100483.53;1713469;82;25627;-50
2024/02/17 04:21:05;;;;;;;35.88;21.40;;;;;;;6.48;83.20;100486.73;1707496;82;25618;-50
2024/02/17 04:23:34;;;;;;;36.37;22.40;;;;;;;6.49;83.22;100489.70;1715962;83;25679;-53
2024/02/17 04:26:03;;;;;;;36.73;22.95;;;;;;;6.48;83.40;100489.42;1710346;83;27312;-51
2024/02/17 04:28:30;;;;;;;35.63;22.62;;;;;;;6.47;83.40;100482.98;1713398;82;25557;-50
2024/02/17 04:30:58;;;;;;;37.98;22.87;;;;;;;6.45;83.78;100480.60;1713972;82;25449;-52
2024/02/17 04:33:24;;;;;;;36.50;22.67;;;;;;;6.45;83.92;100478.43;1708720;82;25584;-50
2024/02/17 04:35:52;;;;;;;36.17;22.13;;;;;;;6.42;84.11;100474.95;1712612;83;25554;-50
2024/02/17 04:38:18;;;;;;;38.28;22.82;;;;;;;6.41;84.04;100474.70;1716469;83;27307;-51
2024/02/17 04:40:45;;;;;;;38.85;21.85;;;;;;;6.40;84.00;100466.36;1710023;83;25930;-52
2024/02/17 04:43:14;;;;;;;40.28;22.17;;;;;;;6.40;84.23;100474.42;1711331;83;25462;-51
2024/02/17 04:45:40;;;;;;;37.05;22.55;;;;;;;6.39;84.43;100474.98;1710099;83;25619;-52
2024/02/17 04:48:08;;;;;;;36.33;21.42;;;;;;;6.38;84.50;100477.39;1677501;85;25446;-52
2024/02/17 04:50:34;;;;;;;34.40;21.60;;;;;;;6.38;84.51;100479.28;1690101;84;27908;-53
2024/02/17 04:53:00;;;;;;;35.92;21.27;;;;;;;6.38;84.79;100480.63;1689983;84;25829;-51
2024/02/17 04:55:26;;;;;;;35.23;22.52;;;;;;;6.38;84.82;100481.97;1689265;84;25457;-52
2024/02/17 04:57:53;;;;;;;34.60;20.50;;;;;;;6.39;84.92;100487.06;1679398;85;25680;-51
2024/02/17 05:00:20;;;;;;;37.93;21.45;;;;;;;6.40;85.34;100479.80;1680460;84;25637;-53
2024/02/17 05:02:48;;;;;;;36.95;21.65;;;;;;;6.39;85.06;100488.41;1680463;85;27308;-52
2024/02/17 05:05:16;;;;;;;37.60;22.58;;;;;;;6.40;85.10;100487.86;1680373;85;25716;-53
2024/02/17 05:07:44;;;;;;;39.30;22.87;;;;;;;6.40;85.35;100487.86;1680473;85;25636;-51
2024/02/17 05:10:10;;;;;;;35.65;21.15;;;;;;;6.40;85.36;100484.63;1706479;83;25691;-50
2024/02/17 05:12:38;;;;;;;37.55;22.05;;;;;;;6.39;85.52;100492.44;1677535;85;25440;-51
2024/02/17 05:15:08;;;;;;;37.20;21.35;;;;;;;6.39;85.75;100491.09;1686073;84;27346;-51
2024/02/17 05:17:35;;;;;;;40.88;22.55;;;;;;;6.39;85.73;100491.64;1685087;85;25411;-51
2024/02/17 05:20:06;;;;;;;34.35;22.10;;;;;;;6.39;85.88;100493.78;1685145;85;25419;-51
2024/02/17 05:22:32;;;;;;;38.00;21.23;;;;;;;6.41;85.88;100492.17;1684989;85;25892;-54
2024/02/17 05:24:58;;;;;;;37.80;22.32;;;;;;;6.43;86.31;100498.06;1685152;85;25643;-50
2024/02/17 05:27:25;;;;;;;38.00;22.75;;;;;;;6.44;86.03;100497.00;1685084;85;27415;-50
2024/02/17 05:29:52;;;;;;;34.98;22.48;;;;;;;6.45;86.13;100500.75;1685006;85;25447;-53
2024/02/17 05:32:19;;;;;;;33.25;21.48;;;;;;;6.48;86.16;100506.89;1685053;85;25631;-51
2024/02/17 05:34:46;;;;;;;36.50;21.57;;;;;;;6.51;86.57;100506.34;1705876;84;26413;-51
2024/02/17 05:37:12;;;;;;;36.03;21.25;;;;;;;6.53;86.23;100506.08;1705936;82;25619;-51
2024/02/17 05:39:39;;;;;;;36.83;22.42;;;;;;;6.53;86.52;100512.24;1705852;84;27332;-51
2024/02/17 05:42:06;;;;;;;33.38;19.40;;;;;;;6.56;86.56;100521.66;1707712;83;25618;-52
2024/02/17 05:44:32;;;;;;;34.92;21.52;;;;;;;6.58;86.71;100510.08;1710052;82;25430;-53
2024/02/17 05:46:58;;;;;;;36.75;21.50;;;;;;;6.60;86.72;100525.38;1707207;82;25679;-53
2024/02/17 05:49:25;;;;;;;32.55;20.80;;;;;;;6.61;86.96;100512.22;1706036;83;25675;-52
2024/02/17 05:51:52;;;;;;;32.30;20.30;;;;;;;6.63;87.37;100514.63;1710463;82;27788;-53
2024/02/17 05:54:20;;;;;;;35.75;20.80;;;;;;;6.66;87.34;100528.32;1708476;83;25452;-54
2024/02/17 05:56:51;;;;;;;40.23;21.25;;;;;;;6.70;87.47;100530.70;1707847;83;25489;-52
2024/02/17 05:59:18;;;;;;;37.55;20.52;;;;;;;6.73;87.68;100530.70;1705878;84;25628;-53
2024/02/17 06:01:46;;;;;;;32.67;20.08;;;;;;;6.77;87.99;100533.09;1709719;83;25413;-53
2024/02/17 06:04:14;;;;;;;34.03;20.25;;;;;;;6.80;88.05;100538.47;1705888;84;28534;-51
2024/02/17 06:06:41;;;;;;;33.38;20.12;;;;;;;6.83;88.47;100540.61;1706343;82;25396;-52
2024/02/17 06:09:08;;;;;;;32.60;20.17;;;;;;;6.87;88.87;100541.66;1708527;83;25678;-51
2024/02/17 06:11:34;;;;;;;34.40;20.17;;;;;;;6.89;89.61;100534.90;1706633;82;25737;-51
2024/02/17 06:14:01;;;;;;;35.17;20.55;;;;;;;6.91;89.55;100540.83;1707491;83;25394;-52
2024/02/17 06:16:29;;;;;;;35.15;20.05;;;;;;;6.94;89.94;100537.31;1705827;84;27313;-54
2024/02/17 06:21:42;;;;;;;36.38;22.07;;;;;;;6.97;90.61;100535.42;1685391;85;25657;-55
2024/02/17 06:24:09;;;;;;;34.78;21.95;;;;;;;6.97;90.93;100538.91;1685062;85;26277;-55
2024/02/17 06:26:36;;;;;;;36.80;21.50;;;;;;;6.97;91.19;100544.83;1685120;85;25470;-53
2024/02/17 06:29:04;;;;;;;37.33;21.30;;;;;;;6.98;91.58;100548.59;1707715;83;29429;-55
2024/02/17 06:31:33;;;;;;;36.10;22.65;;;;;;;6.98;91.68;100552.63;1707773;83;33087;-52
2024/02/17 06:34:01;;;;;;;34.03;22.73;;;;;;;6.99;92.31;100554.77;1706789;83;25557;-51
2024/02/17 06:36:30;;;;;;;34.75;21.68;;;;;;;6.98;92.37;100557.18;1708474;83;26257;-50
2024/02/17 06:38:57;;;;;;;36.85;21.75;;;;;;;6.97;92.45;100561.77;1706185;83;25455;-50
2024/02/17 06:41:26;;;;;;;36.23;23.32;;;;;;;6.98;92.95;100560.69;1707773;82;28266;-51
2024/02/17 06:43:53;;;;;;;39.83;23.45;;;;;;;6.99;93.24;100565.52;1707748;82;25388;-51
2024/02/17 06:46:21;;;;;;;40.98;24.00;;;;;;;6.98;93.12;100564.73;1707213;82;25696;-51
2024/02/17 06:48:53;;;;;;;37.17;22.17;;;;;;;7.00;93.35;100572.49;1710305;83;25651;-50
2024/02/17 06:51:17;;;;;;;40.03;24.25;;;;;;;7.00;93.66;100560.39;1705764;83;25602;-53
2024/02/17 06:53:46;;;;;;;37.70;23.83;;;;;;;7.02;93.82;100571.70;1707754;83;27338;-51
2024/02/17 06:56:12;;;;;;;35.75;24.25;;;;;;;7.03;94.02;100566.04;1706678;83;25883;-50
2024/02/17 06:58:38;;;;;;;39.80;23.47;;;;;;;7.06;94.34;100570.84;1710439;82;25663;-50
2024/02/17 07:01:05;;;;;;;39.95;24.05;;;;;;;7.08;94.55;100573.25;1707802;82;25624;-53
2024/02/17 07:03:31;;;;;;;40.55;23.12;;;;;;;7.10;94.74;100573.80;1705871;82;25449;-50
2024/02/17 07:05:59;;;;;;;37.53;23.67;;;;;;;7.13;95.13;100576.46;1707849;82;28341;-51
2024/02/17 07:08:28;;;;;;;43.15;24.92;;;;;;;7.14;95.47;100575.39;1706995;82;25613;-51
2024/02/17 07:10:55;;;;;;;42.30;25.32;;;;;;;7.17;95.63;100576.16;1706486;83;32523;-52
2024/02/17 07:13:21;;;;;;;41.25;23.90;;;;;;;7.20;95.89;100580.47;1705778;84;25613;-53
2024/02/17 07:15:49;;;;;;;39.78;24.95;;;;;;;7.23;96.03;100587.16;1705857;82;25598;-50
2024/02/17 07:18:16;;;;;;;43.95;25.32;;;;;;;7.25;96.39;100584.98;1707734;83;28433;-52
2024/02/17 07:20:45;;;;;;;43.30;25.52;;;;;;;7.28;96.68;100583.09;1705778;82;25571;-52
2024/02/17 07:23:13;;;;;;;39.25;23.67;;;;;;;7.31;96.89;100585.23;1708438;83;25391;-51
2024/02/17 07:25:41;;;;;;;38.70;24.57;;;;;;;7.35;97.25;100584.91;1707231;83;25705;-49
2024/02/17 07:28:11;;;;;;;39.03;24.18;;;;;;;7.36;97.56;100589.23;1708399;83;25544;-53
2024/02/17 07:30:36;;;;;;;39.50;25.08;;;;;;;7.39;97.64;100590.02;1707149;82;27335;-54
2024/02/17 07:33:03;;;;;;;43.42;25.70;;;;;;;7.42;97.79;100588.12;1707845;82;25957;-54
2024/02/17 07:35:29;;;;;;;37.73;25.05;;;;;;;7.46;98.05;100596.44;1707891;83;25552;-53
2024/02/17 07:37:56;;;;;;;40.65;24.55;;;;;;;7.50;98.15;100595.33;1705932;82;25615;-55
2024/02/17 07:40:22;;;;;;;41.30;25.55;;;;;;;7.53;98.30;100596.91;1708785;82;25585;-51
2024/02/17 07:42:48;;;;;;;39.80;24.90;;;;;;;7.58;98.53;100602.81;1706993;83;29568;-52
2024/02/17 07:45:16;;;;;;;41.20;26.60;;;;;;;7.61;98.72;100603.05;1711266;83;25806;-50
2024/02/17 07:47:42;;;;;;;41.75;25.90;;;;;;;7.64;98.74;100599.80;1717709;82;25600;-51
2024/02/17 07:50:10;;;;;;;41.65;24.63;;;;;;;7.70;99.17;100603.80;1717603;83;25627;-50
2024/02/17 07:52:39;;;;;;;38.28;25.43;;;;;;;7.74;99.38;100609.66;1717833;83;25586;-51
2024/02/17 07:55:07;;;;;;;38.70;25.27;;;;;;;7.80;99.71;100609.89;1717948;83;27077;-52
2024/02/17 07:57:35;;;;;;;41.90;24.82;;;;;;;7.84;99.86;100606.09;1717613;83;25450;-51
2024/02/17 08:00:05;;;;;;;40.40;26.60;;;;;;;7.91;100.00;100616.53;1717737;82;25627;-51
2024/02/17 08:02:32;;;;;;;38.15;25.08;;;;;;;7.96;100.00;100605.72;1717661;82;26588;-51
2024/02/17 08:04:58;;;;;;;40.10;25.30;;;;;;;8.03;100.00;100616.95;1717670;83;25615;-51
2024/02/17 08:07:24;;;;;;;40.17;25.65;;;;;;;8.09;100.00;100620.39;1717699;83;27917;-51
2024/02/17 08:09:51;;;;;;;39.58;25.50;;;;;;;8.13;100.00;100622.80;1717581;83;25480;-51
2024/02/17 08:12:17;;;;;;;40.63;25.52;;;;;;;8.18;100.00;100623.55;1717697;83;25578;-54
2024/02/17 08:14:45;;;;;;;37.73;24.52;;;;;;;8.23;100.00;100623.49;1717670;83;26417;-51
2024/02/17 08:17:13;;;;;;;35.38;24.77;;;;;;;8.29;100.00;100632.35;1717674;83;25561;-49
2024/02/17 08:19:39;;;;;;;38.05;25.30;;;;;;;8.34;100.00;100630.95;1717670;83;27099;-51
2024/02/17 08:22:06;;;;;;;36.68;25.17;;;;;;;8.38;100.00;100629.83;1717586;82;25440;-50
2024/02/17 08:24:33;;;;;;;35.60;24.52;;;;;;;8.46;100.00;100636.51;1717676;83;25398;-49
2024/02/17 08:27:00;;;;;;;39.83;25.80;;;;;;;8.50;100.00;100631.61;1717640;82;26395;-50
2024/02/17 08:29:26;;;;;;;38.38;25.50;;;;;;;8.57;100.00;100642.05;1717657;83;25563;-50
2024/02/17 08:31:53;;;;;;;37.63;24.95;;;;;;;8.64;100.00;100644.41;1717664;83;27090;-50
2024/02/17 08:34:20;;;;;;;35.48;24.50;;;;;;;8.69;100.00;100652.45;1717606;83;25441;-50
2024/02/17 08:36:46;;;;;;;36.38;24.50;;;;;;;8.76;100.00;100656.94;1717644;83;25436;-50
2024/02/17 08:39:14;;;;;;;41.53;23.75;;;;;;;8.81;100.00;100660.13;1717588;82;25579;-52
2024/02/17 08:41:42;;;;;;;34.60;23.87;;;;;;;8.85;100.00;100657.11;1717656;83;25463;-50
2024/02/17 08:44:10;;;;;;;33.98;24.00;;;;;;;8.91;100.00;100658.66;1717678;82;28244;-50
2024/02/17 08:46:39;;;;;;;34.85;23.07;;;;;;;8.95;100.00;100662.38;1712371;82;25393;-50
2024/02/17 08:49:05;;;;;;;33.90;23.60;;;;;;;9.01;100.00;100659.05;1703141;82;25674;-52
2024/02/17 08:51:32;;;;;;;37.67;24.55;;;;;;;9.06;100.00;100665.21;1713281;83;26433;-49
2024/02/17 08:53:59;;;;;;;35.00;22.87;;;;;;;9.13;100.00;100667.56;1713340;83;25547;-49
2024/02/17 08:56:25;;;;;;;31.93;23.42;;;;;;;9.15;100.00;100668.86;1713306;83;27336;-49
2024/02/17 08:58:52;;;;;;;37.40;23.57;;;;;;;9.22;100.00;100671.20;1741218;82;25831;-48
2024/02/17 09:01:19;;;;;;;31.05;22.02;;;;;;;9.25;100.00;100672.53;1741333;82;25595;-48
2024/02/17 09:03:47;;;;;;;38.00;24.47;;;;;;;9.29;100.00;100678.39;1741285;82;25830;-48
2024/02/17 09:06:15;;;;;;;36.10;23.77;;;;;;;9.35;100.00;100674.54;1741350;82;25391;-49
2024/02/17 09:08:42;;;;;;;33.90;22.82;;;;;;;9.41;100.00;100681.22;1703359;84;27310;-49
2024/02/17 09:11:08;;;;;;;33.40;22.48;;;;;;;9.44;100.00;100677.38;1703101;84;25461;-50
2024/02/17 09:13:36;;;;;;;32.28;23.30;;;;;;;9.48;100.00;100678.95;1674812;85;25514;-51
2024/02/17 09:16:03;;;;;;;37.98;25.68;;;;;;;9.50;100.00;100680.80;1689784;84;26413;-52
2024/02/17 09:18:30;;;;;;;52.25;39.03;;;;;;;9.54;100.00;100678.59;1689866;84;25627;-52
2024/02/17 09:20:57;;;;;;;30.90;23.52;;;;;;;9.61;100.00;100683.63;1689814;84;27343;-53
2024/02/17 09:23:24;;;;;;;32.63;22.13;;;;;;;9.66;100.00;100686.81;1689701;84;25618;-51
2024/02/17 09:25:52;;;;;;;29.82;21.37;;;;;;;9.70;100.00;100691.34;1689819;84;25632;-51
2024/02/17 09:28:19;;;;;;;28.67;20.57;;;;;;;9.77;100.00;100696.34;1689701;84;25627;-49
2024/02/17 09:30:45;;;;;;;31.55;21.65;;;;;;;9.80;100.00;100697.67;1689779;84;25638;-49
2024/02/17 09:33:11;;;;;;;33.70;21.40;;;;;;;9.81;100.00;100696.03;1689806;84;28049;-49
2024/02/17 09:35:38;;;;;;;27.77;20.95;;;;;;;9.82;100.00;100700.88;1689696;84;25451;-49
2024/02/17 09:38:05;;;;;;;28.77;20.68;;;;;;;9.81;100.00;100707.39;1689878;84;25577;-48
2024/02/17 09:40:31;;;;;;;28.47;21.07;;;;;;;9.79;100.00;100704.98;1689713;84;25628;-48
2024/02/17 09:42:58;;;;;;;27.98;20.25;;;;;;;9.81;100.00;100714.94;1673314;85;25559;-50
2024/02/17 09:45:26;;;;;;;25.60;20.20;;;;;;;9.81;100.00;100715.50;1657025;85;29553;-49
2024/02/17 09:47:56;;;;;;;29.42;20.75;;;;;;;9.80;100.00;100720.63;1674848;85;25484;-49
2024/02/17 09:50:24;;;;;;;;;;;;;;;9.81;100.00;100722.25;1677238;85;25522;-49
2024/02/17 09:52:54;;;;;;;27.27;20.05;;;;;;;9.80;100.00;100720.08;1703032;83;25734;-50
2024/02/17 09:55:23;;;;;;;26.02;18.65;;;;;;;9.79;100.00;100721.20;1703128;84;25408;-50
2024/02/17 09:57:51;;;;;;;26.80;18.00;;;;;;;9.80;100.00;100719.28;1695210;84;27394;-50
2024/02/17 10:00:19;;;;;;;26.93;18.75;;;;;;;9.81;100.00;100711.45;1702971;84;25952;-50
2024/02/17 10:02:48;;;;;;;25.10;18.32;;;;;;;9.83;100.00;100722.20;1703092;83;25565;-49
2024/02/17 10:05:15;;;;;;;24.23;17.75;;;;;;;9.87;100.00;100727.81;1674775;85;25612;-52
2024/02/17 10:07:55;;;;;;;162.55;124.25;;;;;;;9.86;100.00;100726.23;1689798;84;25407;-53
2024/02/17 10:10:25;;;;;;;27.98;20.17;;;;;;;9.89;100.00;100729.14;1689924;84;27412;-53
2024/02/17 10:12:58;;;;;;;21.07;16.27;;;;;;;9.93;100.00;100729.36;1689699;84;25687;-49
2024/02/17 10:15:26;;;;;;;20.35;15.38;;;;;;;9.95;100.00;100737.17;1673344;85;25447;-52
2024/02/17 10:17:56;;;;;;;22.42;15.53;;;;;;;9.94;100.00;100736.34;1689740;84;25623;-51
2024/02/17 10:20:23;;;;;;;;;;;;;;;9.93;100.00;100731.23;1675794;85;25473;-50
2024/02/17 10:22:49;;;;;;;19.35;15.38;;;;;;;9.93;100.00;100732.59;1674761;85;27369;-51
2024/02/17 10:25:16;;;;;;;19.02;15.20;;;;;;;9.94;100.00;100739.05;1689690;84;25807;-50
2024/02/17 10:27:45;;;;;;;21.52;16.55;;;;;;;9.97;100.00;100737.67;1689739;84;25554;-51
2024/02/17 10:30:16;;;;;;;;;;;;;;;10.01;100.00;100734.63;1692248;84;26150;-50
2024/02/17 10:32:44;;;;;;;22.77;16.70;;;;;;;10.03;100.00;100730.55;1689871;84;25631;-52
2024/02/17 10:35:14;;;;;;;25.90;18.40;;;;;;;10.05;100.00;100731.05;1689742;84;27345;-52
2024/02/17 10:37:41;;;;;;;24.75;18.98;;;;;;;10.07;100.00;100741.57;1689781;84;25457;-53
2024/02/17 10:40:14;;;;;;;27.98;19.35;;;;;;;10.08;100.00;100735.87;1689773;84;25674;-49
2024/02/17 10:42:41;;;;;;;25.12;18.77;;;;;;;10.10;100.00;100744.48;1689746;84;25634;-50
2024/02/17 10:45:09;;;;;;;29.27;20.35;;;;;;;10.11;100.00;100747.98;1703125;84;25392;-49
2024/02/17 10:47:40;;;;;;;27.98;20.60;;;;;;;10.09;100.00;100743.42;1711549;83;27914;-50
2024/02/17 10:50:16;;;;;;;32.95;22.42;;;;;;;10.09;100.00;100746.13;1713597;83;25558;-49
2024/02/17 10:52:59;;;;;;;32.40;22.45;;;;;;;10.08;100.00;100740.48;1717589;83;25395;-51
2024/02/17 10:55:31;;;;;;;31.70;22.62;;;;;;;10.11;100.00;100743.92;1717501;82;26170;-50
2024/02/17 10:58:10;;;;;;;32.88;22.95;;;;;;;10.10;100.00;100743.13;1717628;83;25568;-48
2024/02/17 11:00:40;;;;;;;32.17;21.55;;;;;;;10.10;100.00;100745.84;1718095;82;27398;-53
2024/02/17 11:03:08;;;;;;;32.28;23.55;;;;;;;10.08;100.00;100741.28;1717647;82;25448;-50
2024/02/17 11:05:40;;;;;;;34.93;24.60;;;;;;;10.07;100.00;100743.72;1717979;82;25569;-49
2024/02/17 11:08:07;;;;;;;32.67;23.40;;;;;;;10.07;100.00;100744.27;1717457;82;26471;-50
2024/02/17 11:10:35;;;;;;;35.90;24.45;;;;;;;10.08;100.00;100744.54;1717715;83;25589;-57
2024/02/17 11:13:02;;;;;;;247.40;182.43;;;;;;;10.08;100.00;100739.93;1717713;83;27330;-54
2024/02/17 11:15:30;;;;;;;49.05;33.00;;;;;;;10.12;100.00;100746.89;1717669;82;25938;-52
2024/02/17 11:18:00;;;;;;;38.25;27.98;;;;;;;10.13;100.00;100745.81;1717757;82;25467;-49
2024/02/17 11:20:28;;;;;;;38.30;27.13;;;;;;;10.14;100.00;100744.70;1717828;82;25598;-49